sensor_id;sensor_type;location;lat;lon;timestamp;P1;durP1;ratioP1;P2;durP2;ratioP2
35803;SDS011;21924;51.934;7.414;2023-07-28T00:19:51;10.45;;;4.03;;
35803;SDS011;21924;51.934;7.414;2023-07-28T00:26:43;6.20;;;3.58;;
35803;SDS011;21924;51.934;7.414;2023-07-28T00:43:48;6.50;;;3.53;;
35803;SDS011;21924;51.934;7.414;2023-07-28T00:50:22;6.88;;;2.90;;
35803;SDS011;21924;51.934;7.414;2023-07-28T01:18:53;6.88;;;3.88;;
35803;SDS011;21924;51.934;7.414;2023-07-28T01:29:02;8.40;;;3.90;;
35803;SDS011;21924;51.934;7.414;2023-07-28T01:35:48;6.90;;;3.78;;
35803;SDS011;21924;51.934;7.414;2023-07-28T01:42:27;7.72;;;3.85;;
35803;SDS011;21924;51.934;7.414;2023-07-28T01:59:45;11.60;;;4.30;;
35803;SDS011;21924;51.934;7.414;2023-07-28T02:02:33;10.07;;;4.65;;
35803;SDS011;21924;51.934;7.414;2023-07-28T02:05:48;10.13;;;4.00;;
35803;SDS011;21924;51.934;7.414;2023-07-28T02:08:51;13.57;;;4.68;;
35803;SDS011;21924;51.934;7.414;2023-07-28T02:14:47;12.25;;;5.45;;
35803;SDS011;21924;51.934;7.414;2023-07-28T02:24:05;9.60;;;4.53;;
35803;SDS011;21924;51.934;7.414;2023-07-28T02:26:49;11.75;;;4.95;;
35803;SDS011;21924;51.934;7.414;2023-07-28T02:29:34;11.43;;;5.60;;
35803;SDS011;21924;51.934;7.414;2023-07-28T02:35:37;11.45;;;4.88;;
35803;SDS011;21924;51.934;7.414;2023-07-28T02:38:25;12.73;;;5.70;;
35803;SDS011;21924;51.934;7.414;2023-07-28T02:41:29;11.60;;;5.05;;
35803;SDS011;21924;51.934;7.414;2023-07-28T02:44:14;9.45;;;5.43;;
35803;SDS011;21924;51.934;7.414;2023-07-28T02:46:59;12.85;;;4.88;;
35803;SDS011;21924;51.934;7.414;2023-07-28T02:49:44;9.20;;;4.47;;
35803;SDS011;21924;51.934;7.414;2023-07-28T02:52:30;11.65;;;5.78;;
35803;SDS011;21924;51.934;7.414;2023-07-28T02:55:14;12.73;;;5.57;;
35803;SDS011;21924;51.934;7.414;2023-07-28T03:04:41;12.90;;;5.50;;
35803;SDS011;21924;51.934;7.414;2023-07-28T03:10:40;12.85;;;5.32;;
35803;SDS011;21924;51.934;7.414;2023-07-28T03:16:46;9.93;;;4.68;;
35803;SDS011;21924;51.934;7.414;2023-07-28T03:19:30;11.63;;;4.68;;
35803;SDS011;21924;51.934;7.414;2023-07-28T03:22:15;17.25;;;5.05;;
35803;SDS011;21924;51.934;7.414;2023-07-28T03:25:01;8.27;;;4.78;;
35803;SDS011;21924;51.934;7.414;2023-07-28T03:28:05;8.43;;;4.30;;
35803;SDS011;21924;51.934;7.414;2023-07-28T03:30:51;12.35;;;4.75;;
35803;SDS011;21924;51.934;7.414;2023-07-28T03:33:36;13.63;;;4.60;;
35803;SDS011;21924;51.934;7.414;2023-07-28T03:36:20;8.93;;;4.25;;
35803;SDS011;21924;51.934;7.414;2023-07-28T03:39:05;9.63;;;4.82;;
35803;SDS011;21924;51.934;7.414;2023-07-28T03:41:51;13.23;;;4.68;;
35803;SDS011;21924;51.934;7.414;2023-07-28T03:44:35;8.60;;;5.13;;
35803;SDS011;21924;51.934;7.414;2023-07-28T03:47:22;12.07;;;4.50;;
35803;SDS011;21924;51.934;7.414;2023-07-28T03:50:07;12.25;;;5.57;;
35803;SDS011;21924;51.934;7.414;2023-07-28T03:52:52;9.82;;;4.95;;
35803;SDS011;21924;51.934;7.414;2023-07-28T03:55:37;12.18;;;5.22;;
35803;SDS011;21924;51.934;7.414;2023-07-28T03:58:22;12.57;;;5.80;;
35803;SDS011;21924;51.934;7.414;2023-07-28T04:04:53;15.13;;;6.40;;
35803;SDS011;21924;51.934;7.414;2023-07-28T04:16:00;17.13;;;6.53;;
35803;SDS011;21924;51.934;7.414;2023-07-28T04:21:53;12.30;;;5.95;;
35803;SDS011;21924;51.934;7.414;2023-07-28T04:25:18;19.30;;;6.70;;
35803;SDS011;21924;51.934;7.414;2023-07-28T04:28:03;13.82;;;6.63;;
35803;SDS011;21924;51.934;7.414;2023-07-28T04:30:52;16.17;;;6.70;;
35803;SDS011;21924;51.934;7.414;2023-07-28T04:33:38;18.25;;;6.50;;
35803;SDS011;21924;51.934;7.414;2023-07-28T04:36:34;13.57;;;6.78;;
35803;SDS011;21924;51.934;7.414;2023-07-28T04:39:34;18.70;;;7.28;;
35803;SDS011;21924;51.934;7.414;2023-07-28T04:42:44;19.98;;;7.90;;
35803;SDS011;21924;51.934;7.414;2023-07-28T04:49:01;22.50;;;8.15;;
35803;SDS011;21924;51.934;7.414;2023-07-28T04:51:47;17.33;;;7.90;;
35803;SDS011;21924;51.934;7.414;2023-07-28T04:54:31;20.48;;;8.85;;
35803;SDS011;21924;51.934;7.414;2023-07-28T04:57:15;17.67;;;7.82;;
35803;SDS011;21924;51.934;7.414;2023-07-28T05:00:02;19.38;;;7.93;;
35803;SDS011;21924;51.934;7.414;2023-07-28T05:02:48;19.42;;;8.13;;
35803;SDS011;21924;51.934;7.414;2023-07-28T05:05:32;20.80;;;8.50;;
35803;SDS011;21924;51.934;7.414;2023-07-28T05:08:17;20.73;;;8.35;;
35803;SDS011;21924;51.934;7.414;2023-07-28T05:11:02;27.77;;;8.88;;
35803;SDS011;21924;51.934;7.414;2023-07-28T05:13:46;21.27;;;8.88;;
35803;SDS011;21924;51.934;7.414;2023-07-28T05:16:30;19.40;;;7.57;;
35803;SDS011;21924;51.934;7.414;2023-07-28T05:19:16;26.02;;;8.43;;
35803;SDS011;21924;51.934;7.414;2023-07-28T05:22:02;20.45;;;8.30;;
35803;SDS011;21924;51.934;7.414;2023-07-28T05:24:46;19.73;;;8.55;;
35803;SDS011;21924;51.934;7.414;2023-07-28T05:27:30;17.27;;;8.60;;
35803;SDS011;21924;51.934;7.414;2023-07-28T05:30:14;23.15;;;8.88;;
35803;SDS011;21924;51.934;7.414;2023-07-28T05:32:59;18.58;;;8.13;;
35803;SDS011;21924;51.934;7.414;2023-07-28T05:35:58;19.20;;;9.20;;
35803;SDS011;21924;51.934;7.414;2023-07-28T05:38:48;27.80;;;8.85;;
35803;SDS011;21924;51.934;7.414;2023-07-28T05:41:33;19.70;;;8.35;;
35803;SDS011;21924;51.934;7.414;2023-07-28T05:44:17;22.05;;;8.25;;
35803;SDS011;21924;51.934;7.414;2023-07-28T05:47:01;18.80;;;8.40;;
35803;SDS011;21924;51.934;7.414;2023-07-28T05:49:46;19.23;;;7.82;;
35803;SDS011;21924;51.934;7.414;2023-07-28T05:52:30;22.63;;;8.52;;
35803;SDS011;21924;51.934;7.414;2023-07-28T05:55:14;17.88;;;8.13;;
35803;SDS011;21924;51.934;7.414;2023-07-28T05:57:59;21.15;;;8.95;;
35803;SDS011;21924;51.934;7.414;2023-07-28T06:00:43;25.08;;;8.93;;
35803;SDS011;21924;51.934;7.414;2023-07-28T06:03:27;21.25;;;8.65;;
35803;SDS011;21924;51.934;7.414;2023-07-28T06:06:12;19.60;;;8.43;;
35803;SDS011;21924;51.934;7.414;2023-07-28T06:08:56;21.17;;;8.48;;
35803;SDS011;21924;51.934;7.414;2023-07-28T06:11:41;21.08;;;8.00;;
35803;SDS011;21924;51.934;7.414;2023-07-28T06:14:25;19.65;;;8.52;;
35803;SDS011;21924;51.934;7.414;2023-07-28T06:17:09;22.48;;;8.20;;
35803;SDS011;21924;51.934;7.414;2023-07-28T06:19:55;21.08;;;8.80;;
35803;SDS011;21924;51.934;7.414;2023-07-28T06:22:39;16.70;;;7.72;;
35803;SDS011;21924;51.934;7.414;2023-07-28T06:25:24;22.58;;;9.70;;
35803;SDS011;21924;51.934;7.414;2023-07-28T06:28:08;24.98;;;9.43;;
35803;SDS011;21924;51.934;7.414;2023-07-28T06:30:55;20.35;;;8.05;;
35803;SDS011;21924;51.934;7.414;2023-07-28T06:33:40;17.30;;;8.27;;
35803;SDS011;21924;51.934;7.414;2023-07-28T06:36:25;22.38;;;8.32;;
35803;SDS011;21924;51.934;7.414;2023-07-28T06:39:10;20.95;;;8.60;;
35803;SDS011;21924;51.934;7.414;2023-07-28T06:41:54;19.00;;;8.75;;
35803;SDS011;21924;51.934;7.414;2023-07-28T06:44:38;17.25;;;8.02;;
35803;SDS011;21924;51.934;7.414;2023-07-28T06:47:24;17.88;;;7.85;;
35803;SDS011;21924;51.934;7.414;2023-07-28T06:50:08;21.48;;;8.88;;
35803;SDS011;21924;51.934;7.414;2023-07-28T06:52:54;16.95;;;8.80;;
35803;SDS011;21924;51.934;7.414;2023-07-28T06:55:38;20.65;;;8.70;;
35803;SDS011;21924;51.934;7.414;2023-07-28T06:58:22;19.35;;;7.95;;
35803;SDS011;21924;51.934;7.414;2023-07-28T07:01:07;17.60;;;8.93;;
35803;SDS011;21924;51.934;7.414;2023-07-28T07:03:54;17.25;;;7.85;;
35803;SDS011;21924;51.934;7.414;2023-07-28T07:06:39;21.43;;;8.57;;
35803;SDS011;21924;51.934;7.414;2023-07-28T07:09:23;47.45;;;9.20;;
35803;SDS011;21924;51.934;7.414;2023-07-28T07:12:08;19.55;;;8.35;;
35803;SDS011;21924;51.934;7.414;2023-07-28T07:14:52;20.27;;;8.35;;
35803;SDS011;21924;51.934;7.414;2023-07-28T07:17:37;20.83;;;7.97;;
35803;SDS011;21924;51.934;7.414;2023-07-28T07:20:21;20.20;;;8.18;;
35803;SDS011;21924;51.934;7.414;2023-07-28T07:23:07;20.67;;;9.52;;
35803;SDS011;21924;51.934;7.414;2023-07-28T07:25:51;22.30;;;9.52;;
35803;SDS011;21924;51.934;7.414;2023-07-28T07:28:35;18.10;;;8.73;;
35803;SDS011;21924;51.934;7.414;2023-07-28T07:31:19;21.83;;;9.20;;
35803;SDS011;21924;51.934;7.414;2023-07-28T07:34:04;20.92;;;10.38;;
35803;SDS011;21924;51.934;7.414;2023-07-28T07:36:50;25.58;;;10.70;;
35803;SDS011;21924;51.934;7.414;2023-07-28T07:39:34;24.87;;;9.67;;
35803;SDS011;21924;51.934;7.414;2023-07-28T07:42:20;23.80;;;10.27;;
35803;SDS011;21924;51.934;7.414;2023-07-28T07:45:05;24.33;;;10.05;;
35803;SDS011;21924;51.934;7.414;2023-07-28T07:47:51;21.85;;;10.13;;
35803;SDS011;21924;51.934;7.414;2023-07-28T07:50:36;21.75;;;10.63;;
35803;SDS011;21924;51.934;7.414;2023-07-28T07:53:20;23.63;;;9.80;;
35803;SDS011;21924;51.934;7.414;2023-07-28T07:56:04;21.75;;;10.13;;
35803;SDS011;21924;51.934;7.414;2023-07-28T07:58:49;33.88;;;11.32;;
35803;SDS011;21924;51.934;7.414;2023-07-28T08:01:34;24.65;;;11.18;;
35803;SDS011;21924;51.934;7.414;2023-07-28T08:04:19;24.38;;;11.13;;
35803;SDS011;21924;51.934;7.414;2023-07-28T08:07:04;25.35;;;11.07;;
35803;SDS011;21924;51.934;7.414;2023-07-28T08:09:50;28.10;;;11.35;;
35803;SDS011;21924;51.934;7.414;2023-07-28T08:12:34;26.38;;;11.63;;
35803;SDS011;21924;51.934;7.414;2023-07-28T08:15:18;22.38;;;10.93;;
35803;SDS011;21924;51.934;7.414;2023-07-28T08:18:02;25.42;;;10.80;;
35803;SDS011;21924;51.934;7.414;2023-07-28T08:20:47;29.05;;;12.00;;
35803;SDS011;21924;51.934;7.414;2023-07-28T08:23:33;25.17;;;11.73;;
35803;SDS011;21924;51.934;7.414;2023-07-28T08:26:17;25.67;;;11.52;;
35803;SDS011;21924;51.934;7.414;2023-07-28T08:29:01;24.48;;;11.70;;
35803;SDS011;21924;51.934;7.414;2023-07-28T08:31:45;18.88;;;10.40;;
35803;SDS011;21924;51.934;7.414;2023-07-28T08:34:31;24.98;;;10.57;;
35803;SDS011;21924;51.934;7.414;2023-07-28T08:37:15;22.40;;;10.07;;
35803;SDS011;21924;51.934;7.414;2023-07-28T08:39:59;24.40;;;11.63;;
35803;SDS011;21924;51.934;7.414;2023-07-28T08:42:43;23.75;;;10.13;;
35803;SDS011;21924;51.934;7.414;2023-07-28T08:45:28;19.98;;;9.57;;
35803;SDS011;21924;51.934;7.414;2023-07-28T08:48:12;23.83;;;10.27;;
35803;SDS011;21924;51.934;7.414;2023-07-28T08:50:56;22.50;;;9.82;;
35803;SDS011;21924;51.934;7.414;2023-07-28T08:53:41;22.80;;;9.65;;
35803;SDS011;21924;51.934;7.414;2023-07-28T08:56:25;26.15;;;9.98;;
35803;SDS011;21924;51.934;7.414;2023-07-28T08:59:10;38.10;;;10.93;;
35803;SDS011;21924;51.934;7.414;2023-07-28T09:01:55;17.10;;;8.40;;
35803;SDS011;21924;51.934;7.414;2023-07-28T09:04:42;16.80;;;9.20;;
35803;SDS011;21924;51.934;7.414;2023-07-28T09:07:26;16.23;;;8.07;;
35803;SDS011;21924;51.934;7.414;2023-07-28T09:10:20;18.83;;;7.85;;
35803;SDS011;21924;51.934;7.414;2023-07-28T09:13:04;12.40;;;7.70;;
35803;SDS011;21924;51.934;7.414;2023-07-28T09:15:54;14.88;;;8.35;;
35803;SDS011;21924;51.934;7.414;2023-07-28T09:18:40;15.57;;;8.15;;
35803;SDS011;21924;51.934;7.414;2023-07-28T09:21:25;13.98;;;7.53;;
35803;SDS011;21924;51.934;7.414;2023-07-28T09:26:54;16.42;;;8.35;;
35803;SDS011;21924;51.934;7.414;2023-07-28T09:29:42;15.40;;;7.63;;
35803;SDS011;21924;51.934;7.414;2023-07-28T09:32:28;16.42;;;8.35;;
35803;SDS011;21924;51.934;7.414;2023-07-28T09:35:18;16.90;;;8.27;;
35803;SDS011;21924;51.934;7.414;2023-07-28T09:38:03;16.08;;;8.55;;
35803;SDS011;21924;51.934;7.414;2023-07-28T09:40:48;17.33;;;8.23;;
35803;SDS011;21924;51.934;7.414;2023-07-28T09:43:33;19.83;;;8.85;;
35803;SDS011;21924;51.934;7.414;2023-07-28T09:46:19;14.15;;;7.85;;
35803;SDS011;21924;51.934;7.414;2023-07-28T09:49:05;18.42;;;8.82;;
35803;SDS011;21924;51.934;7.414;2023-07-28T09:51:54;17.67;;;8.40;;
35803;SDS011;21924;51.934;7.414;2023-07-28T09:54:41;24.92;;;8.25;;
35803;SDS011;21924;51.934;7.414;2023-07-28T09:57:29;15.93;;;8.38;;
35803;SDS011;21924;51.934;7.414;2023-07-28T10:00:17;17.38;;;8.60;;
35803;SDS011;21924;51.934;7.414;2023-07-28T10:03:04;12.50;;;6.85;;
35803;SDS011;21924;51.934;7.414;2023-07-28T10:05:49;13.10;;;7.75;;
35803;SDS011;21924;51.934;7.414;2023-07-28T10:08:34;14.85;;;8.50;;
35803;SDS011;21924;51.934;7.414;2023-07-28T10:11:22;14.82;;;8.50;;
35803;SDS011;21924;51.934;7.414;2023-07-28T10:14:07;17.45;;;8.80;;
35803;SDS011;21924;51.934;7.414;2023-07-28T10:16:54;16.42;;;8.68;;
35803;SDS011;21924;51.934;7.414;2023-07-28T10:19:40;18.90;;;9.48;;
35803;SDS011;21924;51.934;7.414;2023-07-28T10:22:25;18.30;;;9.57;;
35803;SDS011;21924;51.934;7.414;2023-07-28T10:25:11;18.15;;;9.13;;
35803;SDS011;21924;51.934;7.414;2023-07-28T10:27:55;18.73;;;8.10;;
35803;SDS011;21924;51.934;7.414;2023-07-28T10:30:50;20.97;;;10.07;;
35803;SDS011;21924;51.934;7.414;2023-07-28T10:39:16;17.80;;;9.82;;
35803;SDS011;21924;51.934;7.414;2023-07-28T10:42:08;18.42;;;10.43;;
35803;SDS011;21924;51.934;7.414;2023-07-28T10:44:52;18.33;;;9.25;;
35803;SDS011;21924;51.934;7.414;2023-07-28T10:47:37;16.30;;;9.90;;
35803;SDS011;21924;51.934;7.414;2023-07-28T10:50:26;19.38;;;9.95;;
35803;SDS011;21924;51.934;7.414;2023-07-28T10:53:14;22.23;;;9.60;;
35803;SDS011;21924;51.934;7.414;2023-07-28T10:56:14;19.23;;;9.63;;
35803;SDS011;21924;51.934;7.414;2023-07-28T10:58:59;18.00;;;9.18;;
35803;SDS011;21924;51.934;7.414;2023-07-28T11:01:48;16.63;;;9.65;;
35803;SDS011;21924;51.934;7.414;2023-07-28T11:04:32;20.08;;;10.27;;
35803;SDS011;21924;51.934;7.414;2023-07-28T11:07:17;17.17;;;9.38;;
35803;SDS011;21924;51.934;7.414;2023-07-28T11:10:03;20.23;;;8.70;;
35803;SDS011;21924;51.934;7.414;2023-07-28T11:12:51;16.80;;;9.10;;
35803;SDS011;21924;51.934;7.414;2023-07-28T11:15:46;18.35;;;9.70;;
35803;SDS011;21924;51.934;7.414;2023-07-28T11:18:33;17.83;;;9.40;;
35803;SDS011;21924;51.934;7.414;2023-07-28T11:21:42;16.08;;;9.32;;
35803;SDS011;21924;51.934;7.414;2023-07-28T11:24:28;14.80;;;8.07;;
35803;SDS011;21924;51.934;7.414;2023-07-28T11:27:21;16.25;;;8.70;;
35803;SDS011;21924;51.934;7.414;2023-07-28T11:30:09;12.90;;;7.95;;
35803;SDS011;21924;51.934;7.414;2023-07-28T11:32:54;13.07;;;6.78;;
35803;SDS011;21924;51.934;7.414;2023-07-28T11:35:38;13.60;;;8.27;;
35803;SDS011;21924;51.934;7.414;2023-07-28T11:38:26;14.40;;;6.78;;
35803;SDS011;21924;51.934;7.414;2023-07-28T11:41:15;15.55;;;7.15;;
35803;SDS011;21924;51.934;7.414;2023-07-28T11:44:03;11.82;;;6.53;;
35803;SDS011;21924;51.934;7.414;2023-07-28T11:46:48;14.00;;;7.60;;
35803;SDS011;21924;51.934;7.414;2023-07-28T11:49:45;13.48;;;5.80;;
35803;SDS011;21924;51.934;7.414;2023-07-28T11:52:31;12.95;;;5.68;;
35803;SDS011;21924;51.934;7.414;2023-07-28T11:55:15;9.50;;;5.60;;
35803;SDS011;21924;51.934;7.414;2023-07-28T11:58:00;13.55;;;6.53;;
35803;SDS011;21924;51.934;7.414;2023-07-28T12:00:48;8.95;;;5.10;;
35803;SDS011;21924;51.934;7.414;2023-07-28T12:03:33;12.95;;;5.60;;
35803;SDS011;21924;51.934;7.414;2023-07-28T12:06:18;9.65;;;5.95;;
35803;SDS011;21924;51.934;7.414;2023-07-28T12:09:12;10.90;;;5.38;;
35803;SDS011;21924;51.934;7.414;2023-07-28T12:11:59;10.73;;;5.72;;
35803;SDS011;21924;51.934;7.414;2023-07-28T12:14:44;11.40;;;5.50;;
35803;SDS011;21924;51.934;7.414;2023-07-28T12:17:35;11.02;;;4.90;;
35803;SDS011;21924;51.934;7.414;2023-07-28T12:20:46;9.23;;;5.35;;
35803;SDS011;21924;51.934;7.414;2023-07-28T12:23:31;8.25;;;4.45;;
35803;SDS011;21924;51.934;7.414;2023-07-28T12:26:15;8.85;;;5.15;;
35803;SDS011;21924;51.934;7.414;2023-07-28T12:29:02;11.30;;;5.45;;
35803;SDS011;21924;51.934;7.414;2023-07-28T12:31:52;6.90;;;4.30;;
35803;SDS011;21924;51.934;7.414;2023-07-28T12:34:57;7.57;;;4.35;;
35803;SDS011;21924;51.934;7.414;2023-07-28T12:37:41;7.57;;;4.65;;
35803;SDS011;21924;51.934;7.414;2023-07-28T12:40:26;8.75;;;4.72;;
35803;SDS011;21924;51.934;7.414;2023-07-28T12:43:18;7.60;;;4.72;;
35803;SDS011;21924;51.934;7.414;2023-07-28T12:46:07;7.13;;;4.15;;
35803;SDS011;21924;51.934;7.414;2023-07-28T12:48:51;5.85;;;3.60;;
35803;SDS011;21924;51.934;7.414;2023-07-28T12:51:35;6.93;;;3.15;;
35803;SDS011;21924;51.934;7.414;2023-07-28T12:54:21;6.32;;;3.42;;
35803;SDS011;21924;51.934;7.414;2023-07-28T12:57:06;5.57;;;3.75;;
35803;SDS011;21924;51.934;7.414;2023-07-28T12:59:57;9.85;;;3.58;;
35803;SDS011;21924;51.934;7.414;2023-07-28T13:02:43;9.57;;;4.10;;
35803;SDS011;21924;51.934;7.414;2023-07-28T13:09:08;4.30;;;1.98;;
35803;SDS011;21924;51.934;7.414;2023-07-28T13:11:53;5.07;;;1.88;;
35803;SDS011;21924;51.934;7.414;2023-07-28T13:14:38;3.50;;;2.05;;
35803;SDS011;21924;51.934;7.414;2023-07-28T13:20:10;2.28;;;1.80;;
35803;SDS011;21924;51.934;7.414;2023-07-28T13:22:54;2.22;;;1.85;;
35803;SDS011;21924;51.934;7.414;2023-07-28T13:25:38;3.72;;;1.70;;
35803;SDS011;21924;51.934;7.414;2023-07-28T13:28:23;2.35;;;1.50;;
35803;SDS011;21924;51.934;7.414;2023-07-28T13:33:57;2.80;;;2.10;;
35803;SDS011;21924;51.934;7.414;2023-07-28T13:36:41;4.05;;;2.30;;
35803;SDS011;21924;51.934;7.414;2023-07-28T13:39:27;2.85;;;2.08;;
35803;SDS011;21924;51.934;7.414;2023-07-28T13:42:13;4.72;;;2.03;;
35803;SDS011;21924;51.934;7.414;2023-07-28T13:45:00;5.03;;;1.90;;
35803;SDS011;21924;51.934;7.414;2023-07-28T14:02:04;3.05;;;1.50;;
35803;SDS011;21924;51.934;7.414;2023-07-28T14:08:43;2.78;;;1.48;;
35803;SDS011;21924;51.934;7.414;2023-07-28T14:11:49;1.95;;;1.20;;
35803;SDS011;21924;51.934;7.414;2023-07-28T14:17:57;1.85;;;1.00;;
35803;SDS011;21924;51.934;7.414;2023-07-28T14:35:07;2.38;;;0.85;;
35803;SDS011;21924;51.934;7.414;2023-07-28T14:42:08;1.15;;;0.77;;
35803;SDS011;21924;51.934;7.414;2023-07-28T14:45:08;1.13;;;0.88;;
35803;SDS011;21924;51.934;7.414;2023-07-28T14:47:59;1.10;;;0.93;;
35803;SDS011;21924;51.934;7.414;2023-07-28T14:54:09;1.38;;;0.98;;
35803;SDS011;21924;51.934;7.414;2023-07-28T15:04:12;1.65;;;1.23;;
35803;SDS011;21924;51.934;7.414;2023-07-28T15:14:12;1.63;;;0.85;;
35803;SDS011;21924;51.934;7.414;2023-07-28T15:17:12;1.42;;;1.00;;
35803;SDS011;21924;51.934;7.414;2023-07-28T15:20:12;3.80;;;1.20;;
35803;SDS011;21924;51.934;7.414;2023-07-28T15:23:12;0.85;;;0.70;;
35803;SDS011;21924;51.934;7.414;2023-07-28T15:26:12;2.60;;;1.27;;
35803;SDS011;21924;51.934;7.414;2023-07-28T15:39:39;1.73;;;1.35;;
35803;SDS011;21924;51.934;7.414;2023-07-28T16:07:37;4.55;;;1.48;;
35803;SDS011;21924;51.934;7.414;2023-07-28T16:25:06;2.28;;;1.45;;
35803;SDS011;21924;51.934;7.414;2023-07-28T17:15:25;3.97;;;1.50;;
35803;SDS011;21924;51.934;7.414;2023-07-28T18:50:38;1.65;;;1.20;;
